Time;durP1;ratioP1;P1;durP2;ratioP2;P2;SDS_P1;SDS_P2;PMS_P1;PMS_P2;Temp;Humidity;BMP_temperature;BMP_pressure;BME280_temperature;BME280_humidity;BME280_pressure;Samples;Min_cycle;Max_cycle;Signal;HPM_P1;HPM_P2
2024/02/17 00:00:13;;;;;;;;;;;;;;;;;;5043680;28;20475;-69
2024/02/17 00:02:40;;;;;;;;;;;;;;;;;;5043462;28;19929;-68
2024/02/17 00:05:07;;;;;;;;;;;;;;;;;;5044751;28;20380;-68
2024/02/17 00:07:34;;;;;;;;;;;;;;;;;;5043484;28;19935;-69
2024/02/17 00:10:03;;;;;;;;;;;;;;;;;;5040855;28;19989;-68
2024/02/17 00:12:30;;;;;;;;;;;;;;;;;;5042764;28;20070;-68
2024/02/17 00:14:57;;;;;;;;;;;;;;;;;;5047213;28;20396;-68
2024/02/17 00:17:24;;;;;;;;;;;;;;;;;;5043767;28;20437;-69
2024/02/17 00:19:51;;;;;;;;;;;;;;;;;;5043315;28;20292;-69
2024/02/17 00:22:18;;;;;;;;;;;;;;;;;;5040445;28;19979;-69
2024/02/17 00:24:45;;;;;;;;;;;;;;;;;;5043037;28;20030;-69
2024/02/17 00:27:12;;;;;;;;;;;;;;;;;;5041336;28;20016;-70
2024/02/17 00:29:39;;;;;;;;;;;;;;;;;;5042069;28;19936;-69
2024/02/17 00:32:06;;;;;;;;;;;;;;;;;;5041236;28;19937;-68
2024/02/17 00:34:33;;;;;;;;;;;;;;;;;;5040790;28;19932;-69
2024/02/17 00:37:00;;;;;;;;;;;;;;;;;;5043797;28;20000;-69
2024/02/17 00:39:27;;;;;;;;;;;;;;;;;;5043342;28;20011;-69
2024/02/17 00:41:55;;;;;;;;;;;;;;;;;;5041914;28;20403;-69
2024/02/17 00:44:22;;;;;;;;;;;;;;;;;;5042724;28;20336;-69
2024/02/17 00:46:49;;;;;;;;;;;;;;;;;;5041307;28;19963;-69
2024/02/17 00:49:16;;;;;;;;;;;;;;;;;;5045644;28;19929;-69
2024/02/17 00:51:43;;;;;;;;;;;;;;;;;;5045921;28;20051;-69
2024/02/17 00:54:10;;;;;;;;;;;;;;;;;;5040836;28;19933;-69
2024/02/17 00:56:37;;;;;;;;;;;;;;;;;;5044258;28;20011;-69
2024/02/17 00:59:04;;;;;;;;;;;;;;;;;;5041502;28;19934;-69
2024/02/17 01:01:31;;;;;;;;;;;;;;;;;;5041891;28;20376;-69
2024/02/17 01:03:58;;;;;;;;;;;;;;;;;;5041868;28;19976;-69
2024/02/17 01:06:25;;;;;;;;;;;;;;;;;;5040675;28;20043;-69
2024/02/17 01:08:52;;;;;;;;;;;;;;;;;;5042811;28;19951;-70
2024/02/17 01:11:19;;;;;;;;;;;;;;;;;;5047529;28;20012;-69
2024/02/17 01:13:46;;;;;;;;;;;;;;;;;;5045587;28;19972;-69
2024/02/17 01:16:13;;;;;;;;;;;;;;;;;;5045660;28;19929;-69
2024/02/17 01:18:40;;;;;;;;;;;;;;;;;;5043944;28;19987;-69
2024/02/17 01:21:07;;;;;;;;;;;;;;;;;;5045380;28;19972;-69
2024/02/17 01:23:35;;;;;;;;;;;;;;;;;;5046174;28;20018;-69
2024/02/17 01:26:02;;;;;;;;;;;;;;;;;;5044368;28;19935;-70
2024/02/17 01:28:29;;;;;;;;;;;;;;;;;;5045729;28;19929;-69
2024/02/17 01:30:56;;;;;;;;;;;;;;;;;;5045678;28;20748;-69
2024/02/17 01:33:23;;;;;;;;;;;;;;;;;;5046169;28;20311;-69
2024/02/17 01:35:50;;;;;;;;;;;;;;;;;;5048447;28;20008;-70
2024/02/17 01:38:17;;;;;;;;;;;;;;;;;;5043674;28;19935;-69
2024/02/17 01:40:44;;;;;;;;;;;;;;;;;;5043453;28;19929;-69
2024/02/17 01:43:11;;;;;;;;;;;;;;;;;;5046630;28;20027;-69
2024/02/17 01:45:38;;;;;;;;;;;;;;;;;;5045846;28;20048;-68
2024/02/17 01:48:05;;;;;;;;;;;;;;;;;;5044771;28;20027;-68
2024/02/17 01:50:32;;;;;;;;;;;;;;;;;;5044946;28;20019;-69
2024/02/17 01:52:59;;;;;;;;;;;;;;;;;;5044516;28;19935;-69
2024/02/17 01:55:26;;;;;;;;;;;;;;;;;;5045395;28;19958;-69
2024/02/17 01:57:53;;;;;;;;;;;;;;;;;;5043872;28;19933;-69
2024/02/17 02:00:21;;;;;;;;;;;;;;;;;;5045025;28;20382;-69
2024/02/17 02:02:49;;;;;;;;;;;;;;;;;;5043085;28;20296;-69
2024/02/17 02:05:16;;;;;;;;;;;;;;;;;;5044656;28;19928;-69
2024/02/17 02:07:43;;;;;;;;;;;;;;;;;;5045803;28;19929;-69
2024/02/17 02:10:10;;;;;;;;;;;;;;;;;;5044109;28;19979;-69
2024/02/17 02:12:37;;;;;;;;;;;;;;;;;;5045066;28;19948;-69
2024/02/17 02:15:04;;;;;;;;;;;;;;;;;;5043318;28;19991;-69
2024/02/17 02:17:31;;;;;;;;;;;;;;;;;;5045126;28;19972;-69
2024/02/17 02:19:59;;;;;;;;;;;;;;;;;;5042190;28;19946;-69
2024/02/17 02:22:26;;;;;;;;;;;;;;;;;;5048160;28;19929;-69
2024/02/17 02:24:53;;;;;;;;;;;;;;;;;;5050764;28;19929;-69
2024/02/17 02:27:20;;;;;;;;;;;;;;;;;;5058680;28;19987;-69
2024/02/17 02:29:47;;;;;;;;;;;;;;;;;;5052291;28;19972;-69
2024/02/17 02:32:14;;;;;;;;;;;;;;;;;;5050094;28;19929;-69
2024/02/17 02:34:41;;;;;;;;;;;;;;;;;;5050596;28;19936;-69
2024/02/17 02:37:08;;;;;;;;;;;;;;;;;;5049877;28;19936;-69
2024/02/17 02:39:35;;;;;;;;;;;;;;;;;;5060384;28;19990;-69
2024/02/17 02:42:02;;;;;;;;;;;;;;;;;;5051278;28;19937;-69
2024/02/17 02:44:29;;;;;;;;;;;;;;;;;;5050530;28;19967;-69
2024/02/17 02:46:56;;;;;;;;;;;;;;;;;;5050143;28;20350;-69
2024/02/17 02:49:23;;;;;;;;;;;;;;;;;;5062152;28;19950;-69
2024/02/17 02:51:50;;;;;;;;;;;;;;;;;;5047834;28;19929;-69
2024/02/17 02:54:18;;;;;;;;;;;;;;;;;;5055762;28;19968;-69
2024/02/17 02:56:45;;;;;;;;;;;;;;;;;;5060126;28;19929;-69
2024/02/17 02:59:12;;;;;;;;;;;;;;;;;;5050725;28;19995;-69
2024/02/17 03:01:39;;;;;;;;;;;;;;;;;;5051125;28;20020;-69
2024/02/17 03:04:06;;;;;;;;;;;;;;;;;;5050372;28;20737;-70
2024/02/17 03:06:34;;;;;;;;;;;;;;;;;;5052607;28;19982;-69
2024/02/17 03:09:01;;;;;;;;;;;;;;;;;;5049197;28;20019;-69
2024/02/17 03:11:29;;;;;;;;;;;;;;;;;;5050168;28;20383;-69
2024/02/17 03:13:56;;;;;;;;;;;;;;;;;;5057114;28;19960;-70
2024/02/17 03:16:23;;;;;;;;;;;;;;;;;;5050449;28;20015;-70
2024/02/17 03:18:50;;;;;;;;;;;;;;;;;;5053230;28;19983;-70
2024/02/17 03:21:17;;;;;;;;;;;;;;;;;;5054824;28;19932;-69
2024/02/17 03:23:44;;;;;;;;;;;;;;;;;;5050364;28;19956;-69
2024/02/17 03:26:11;;;;;;;;;;;;;;;;;;5053173;28;20001;-69
2024/02/17 03:28:38;;;;;;;;;;;;;;;;;;5059313;28;19974;-70
2024/02/17 03:31:05;;;;;;;;;;;;;;;;;;5050108;28;19928;-68
2024/02/17 03:33:32;;;;;;;;;;;;;;;;;;5050013;28;19928;-69
2024/02/17 03:36:00;;;;;;;;;;;;;;;;;;5049234;28;19929;-69
2024/02/17 03:38:27;;;;;;;;;;;;;;;;;;5049985;28;19929;-69
2024/02/17 03:40:54;;;;;;;;;;;;;;;;;;5050784;28;20066;-69
2024/02/17 03:43:21;;;;;;;;;;;;;;;;;;5053137;28;19929;-69
2024/02/17 03:45:48;;;;;;;;;;;;;;;;;;5056827;28;20380;-69
2024/02/17 03:48:15;;;;;;;;;;;;;;;;;;5038090;28;19998;-69
2024/02/17 03:50:42;;;;;;;;;;;;;;;;;;5053948;28;19932;-69
2024/02/17 03:53:09;;;;;;;;;;;;;;;;;;5052121;28;19928;-70
2024/02/17 03:55:36;;;;;;;;;;;;;;;;;;5049373;28;20408;-69
2024/02/17 03:58:03;;;;;;;;;;;;;;;;;;5049388;28;19929;-69
2024/02/17 04:00:30;;;;;;;;;;;;;;;;;;5053268;28;19955;-69
2024/02/17 04:02:57;;;;;;;;;;;;;;;;;;5062193;28;19971;-69
2024/02/17 04:05:24;;;;;;;;;;;;;;;;;;5065207;28;20003;-68
2024/02/17 04:07:51;;;;;;;;;;;;;;;;;;5049819;28;19929;-68
2024/02/17 04:10:18;;;;;;;;;;;;;;;;;;5049770;28;19979;-69
2024/02/17 04:12:45;;;;;;;;;;;;;;;;;;5049006;28;19928;-69
2024/02/17 04:15:12;;;;;;;;;;;;;;;;;;5049627;28;19972;-68
2024/02/17 04:17:39;;;;;;;;;;;;;;;;;;5049676;28;19925;-68
2024/02/17 04:20:07;;;;;;;;;;;;;;;;;;5053000;28;19929;-68
2024/02/17 04:22:35;;;;;;;;;;;;;;;;;;5052276;28;20201;-69
2024/02/17 04:25:02;;;;;;;;;;;;;;;;;;5049550;28;19986;-69
2024/02/17 04:27:29;;;;;;;;;;;;;;;;;;5049398;28;19983;-70
2024/02/17 04:29:57;;;;;;;;;;;;;;;;;;5049548;28;19933;-69
2024/02/17 04:32:24;;;;;;;;;;;;;;;;;;5053161;28;19928;-69
2024/02/17 04:34:51;;;;;;;;;;;;;;;;;;5053134;28;19928;-69
2024/02/17 04:37:18;;;;;;;;;;;;;;;;;;5059521;28;20417;-69
2024/02/17 04:39:45;;;;;;;;;;;;;;;;;;5062125;28;19994;-68
2024/02/17 04:42:12;;;;;;;;;;;;;;;;;;5049086;28;20023;-69
2024/02/17 04:44:39;;;;;;;;;;;;;;;;;;5049616;28;20338;-70
2024/02/17 04:47:06;;;;;;;;;;;;;;;;;;5049196;28;19933;-70
2024/02/17 04:49:33;;;;;;;;;;;;;;;;;;5049504;28;20461;-69
2024/02/17 04:52:00;;;;;;;;;;;;;;;;;;5053314;28;20023;-70
2024/02/17 04:54:27;;;;;;;;;;;;;;;;;;5069384;28;20039;-69
2024/02/17 04:56:54;;;;;;;;;;;;;;;;;;5067349;28;19967;-70
2024/02/17 04:59:22;;;;;;;;;;;;;;;;;;5065265;28;20012;-70
2024/02/17 05:01:49;;;;;;;;;;;;;;;;;;5048460;28;20059;-70
2024/02/17 05:04:16;;;;;;;;;;;;;;;;;;5048489;28;19929;-70
2024/02/17 05:06:43;;;;;;;;;;;;;;;;;;5048624;28;20119;-70
2024/02/17 05:09:10;;;;;;;;;;;;;;;;;;5050824;28;19941;-70
2024/02/17 05:11:40;;;;;;;;;;;;;;;;;;5032860;28;20037;-68
2024/02/17 05:14:07;;;;;;;;;;;;;;;;;;5048303;28;19935;-67
2024/02/17 05:16:34;;;;;;;;;;;;;;;;;;5049192;28;19972;-69
2024/02/17 05:19:01;;;;;;;;;;;;;;;;;;5032212;28;19961;-68
2024/02/17 05:21:28;;;;;;;;;;;;;;;;;;5036062;28;20027;-70
2024/02/17 05:23:55;;;;;;;;;;;;;;;;;;5047373;28;20364;-68
2024/02/17 05:26:22;;;;;;;;;;;;;;;;;;5048600;28;19929;-69
2024/02/17 05:28:49;;;;;;;;;;;;;;;;;;5048826;28;20027;-68
2024/02/17 05:31:16;;;;;;;;;;;;;;;;;;5047543;28;19933;-68
2024/02/17 05:33:43;;;;;;;;;;;;;;;;;;5057381;28;19933;-68
2024/02/17 05:36:10;;;;;;;;;;;;;;;;;;5049448;28;20345;-68
2024/02/17 05:38:38;;;;;;;;;;;;;;;;;;5048018;28;19967;-68
2024/02/17 05:41:05;;;;;;;;;;;;;;;;;;5048288;28;19971;-68
2024/02/17 05:43:32;;;;;;;;;;;;;;;;;;5055957;28;19928;-68
2024/02/17 05:45:59;;;;;;;;;;;;;;;;;;5050574;28;20031;-68
2024/02/17 05:48:26;;;;;;;;;;;;;;;;;;5057227;28;19928;-68
2024/02/17 05:50:53;;;;;;;;;;;;;;;;;;5063719;28;20019;-69
2024/02/17 05:53:20;;;;;;;;;;;;;;;;;;5030126;28;19984;-68
2024/02/17 05:55:47;;;;;;;;;;;;;;;;;;5030634;28;19936;-69
2024/02/17 05:58:14;;;;;;;;;;;;;;;;;;5034554;28;19929;-68
2024/02/17 06:00:41;;;;;;;;;;;;;;;;;;5052867;28;19928;-68
2024/02/17 06:03:08;;;;;;;;;;;;;;;;;;5035485;28;19975;-69
2024/02/17 06:05:35;;;;;;;;;;;;;;;;;;5045720;28;19929;-69
2024/02/17 06:08:03;;;;;;;;;;;;;;;;;;5060802;28;19979;-68
2024/02/17 06:10:30;;;;;;;;;;;;;;;;;;5053346;28;19933;-69
2024/02/17 06:12:57;;;;;;;;;;;;;;;;;;5047609;28;20544;-69
2024/02/17 06:15:24;;;;;;;;;;;;;;;;;;5051881;28;20402;-68
2024/02/17 06:21:10;;;;;;;;;;;;;;;;;;5063585;28;19931;-68
2024/02/17 06:23:24;;;;;;;;;;;;;;;;;;5051097;28;20307;-69
2024/02/17 06:25:51;;;;;;;;;;;;;;;;;;5052059;28;19979;-68
2024/02/17 06:28:18;;;;;;;;;;;;;;;;;;5051826;28;19991;-68
2024/02/17 06:30:45;;;;;;;;;;;;;;;;;;5050958;28;20024;-67
2024/02/17 06:33:12;;;;;;;;;;;;;;;;;;5050062;28;20010;-68
2024/02/17 06:35:39;;;;;;;;;;;;;;;;;;5049381;28;20012;-68
2024/02/17 06:38:06;;;;;;;;;;;;;;;;;;5050631;28;19924;-68
2024/02/17 06:40:33;;;;;;;;;;;;;;;;;;5057302;28;19951;-68
2024/02/17 06:43:01;;;;;;;;;;;;;;;;;;5056425;28;19928;-68
2024/02/17 06:45:28;;;;;;;;;;;;;;;;;;5051466;28;19933;-68
2024/02/17 06:47:55;;;;;;;;;;;;;;;;;;5051671;28;20013;-68
2024/02/17 06:50:22;;;;;;;;;;;;;;;;;;5050890;28;19976;-68
2024/02/17 06:52:49;;;;;;;;;;;;;;;;;;5044858;28;20019;-68
2024/02/17 06:55:16;;;;;;;;;;;;;;;;;;5046747;28;19928;-69
2024/02/17 06:57:43;;;;;;;;;;;;;;;;;;5051199;28;19935;-69
2024/02/17 07:00:10;;;;;;;;;;;;;;;;;;5053104;28;20011;-69
2024/02/17 07:02:37;;;;;;;;;;;;;;;;;;5048420;28;20015;-69
2024/02/17 07:05:04;;;;;;;;;;;;;;;;;;5056147;28;20403;-69
2024/02/17 07:07:31;;;;;;;;;;;;;;;;;;5060679;28;20006;-69
2024/02/17 07:10:03;;;;;;;;;;;;;;;;;;5067154;28;19928;-69
2024/02/17 07:12:31;;;;;;;;;;;;;;;;;;5048705;28;19929;-69
2024/02/17 07:14:58;;;;;;;;;;;;;;;;;;5044174;28;20022;-70
2024/02/17 07:17:25;;;;;;;;;;;;;;;;;;5048338;28;19993;-70
2024/02/17 07:19:52;;;;;;;;;;;;;;;;;;5049244;28;19935;-70
2024/02/17 07:22:19;;;;;;;;;;;;;;;;;;5050082;28;19991;-70
2024/02/17 07:24:48;;;;;;;;;;;;;;;;;;5049709;28;20524;-67
2024/02/17 07:27:15;;;;;;;;;;;;;;;;;;5044144;28;20083;-67
2024/02/17 07:29:42;;;;;;;;;;;;;;;;;;5051587;28;19928;-67
2024/02/17 07:32:09;;;;;;;;;;;;;;;;;;5050051;28;20019;-70
2024/02/17 07:34:38;;;;;;;;;;;;;;;;;;5049336;28;19935;-69
2024/02/17 07:37:05;;;;;;;;;;;;;;;;;;5048594;28;19982;-69
2024/02/17 07:39:35;;;;;;;;;;;;;;;;;;5050520;28;19983;-69
2024/02/17 07:42:02;;;;;;;;;;;;;;;;;;5048892;28;19937;-70
2024/02/17 07:44:29;;;;;;;;;;;;;;;;;;5041742;28;20049;-70
2024/02/17 07:46:56;;;;;;;;;;;;;;;;;;5049904;28;20028;-68
2024/02/17 07:49:23;;;;;;;;;;;;;;;;;;5048105;28;20398;-70
2024/02/17 07:51:50;;;;;;;;;;;;;;;;;;5048605;28;20019;-70
2024/02/17 07:54:17;;;;;;;;;;;;;;;;;;5048633;28;19929;-70
2024/02/17 07:56:44;;;;;;;;;;;;;;;;;;5050010;28;19932;-68
2024/02/17 07:59:11;;;;;;;;;;;;;;;;;;5045276;28;19935;-70
2024/02/17 08:01:38;;;;;;;;;;;;;;;;;;5048732;28;21824;-71
2024/02/17 08:04:05;;;;;;;;;;;;;;;;;;5050219;28;20024;-70
2024/02/17 08:06:32;;;;;;;;;;;;;;;;;;5053953;28;19997;-70
2024/02/17 08:08:59;;;;;;;;;;;;;;;;;;5054355;28;19929;-71
2024/02/17 08:11:26;;;;;;;;;;;;;;;;;;5047738;28;19925;-71
2024/02/17 08:13:53;;;;;;;;;;;;;;;;;;5046928;28;19929;-70
2024/02/17 08:16:22;;;;;;;;;;;;;;;;;;5045408;28;20356;-71
2024/02/17 08:18:49;;;;;;;;;;;;;;;;;;5045962;28;19975;-71
2024/02/17 08:21:16;;;;;;;;;;;;;;;;;;5049229;28;20038;-71
2024/02/17 08:23:43;;;;;;;;;;;;;;;;;;5043347;28;20012;-70
2024/02/17 08:26:11;;;;;;;;;;;;;;;;;;5039588;28;19968;-71
2024/02/17 08:28:39;;;;;;;;;;;;;;;;;;5023213;28;19929;-70
2024/02/17 08:31:06;;;;;;;;;;;;;;;;;;5047790;28;19929;-70
2024/02/17 08:33:33;;;;;;;;;;;;;;;;;;5042144;28;20381;-71
2024/02/17 08:36:00;;;;;;;;;;;;;;;;;;5041909;28;19937;-69
2024/02/17 08:38:27;;;;;;;;;;;;;;;;;;5042338;28;19928;-70
2024/02/17 08:40:54;;;;;;;;;;;;;;;;;;5048142;28;19935;-70
2024/02/17 08:43:21;;;;;;;;;;;;;;;;;;5046261;28;20019;-70
2024/02/17 08:45:48;;;;;;;;;;;;;;;;;;5046395;28;20011;-71
2024/02/17 08:48:15;;;;;;;;;;;;;;;;;;5046661;28;20427;-70
2024/02/17 08:50:42;;;;;;;;;;;;;;;;;;5036315;28;19935;-70
2024/02/17 08:53:09;;;;;;;;;;;;;;;;;;5042076;28;20425;-69
2024/02/17 08:55:36;;;;;;;;;;;;;;;;;;5046833;28;20027;-66
2024/02/17 08:58:03;;;;;;;;;;;;;;;;;;5032864;28;20279;-69
2024/02/17 09:00:30;;;;;;;;;;;;;;;;;;5038360;28;19935;-68
2024/02/17 09:02:57;;;;;;;;;;;;;;;;;;5045139;28;19932;-69
2024/02/17 09:05:24;;;;;;;;;;;;;;;;;;5043074;28;20048;-69
2024/02/17 09:07:53;;;;;;;;;;;;;;;;;;5033561;28;20660;-68
2024/02/17 09:10:20;;;;;;;;;;;;;;;;;;5036373;28;19928;-69
2024/02/17 09:12:47;;;;;;;;;;;;;;;;;;5046697;28;20015;-69
2024/02/17 09:15:14;;;;;;;;;;;;;;;;;;5039845;28;19935;-69
2024/02/17 09:17:41;;;;;;;;;;;;;;;;;;5037321;28;19976;-68
2024/02/17 09:20:08;;;;;;;;;;;;;;;;;;5043213;28;20018;-70
2024/02/17 09:22:35;;;;;;;;;;;;;;;;;;5043020;28;20471;-68
2024/02/17 09:25:02;;;;;;;;;;;;;;;;;;5045811;28;20472;-71
2024/02/17 09:27:29;;;;;;;;;;;;;;;;;;5042733;28;20487;-71
2024/02/17 09:29:56;;;;;;;;;;;;;;;;;;5050583;28;19987;-72
2024/02/17 09:32:23;;;;;;;;;;;;;;;;;;5042802;28;20020;-76
2024/02/17 09:34:50;;;;;;;;;;;;;;;;;;5045174;28;20310;-75
2024/02/17 09:37:17;;;;;;;;;;;;;;;;;;5056690;28;20024;-74
2024/02/17 09:39:44;;;;;;;;;;;;;;;;;;5055457;28;20023;-75
2024/02/17 09:42:12;;;;;;;;;;;;;;;;;;5061106;28;20034;-75
2024/02/17 09:44:40;;;;;;;;;;;;;;;;;;5053277;28;20717;-74
2024/02/17 09:47:07;;;;;;;;;;;;;;;;;;5049894;28;19937;-76
2024/02/17 09:49:34;;;;;;;;;;;;;;;;;;5058600;28;19939;-74
2024/02/17 09:52:01;;;;;;;;;;;;;;;;;;5054342;28;19933;-75
2024/02/17 09:54:28;;;;;;;;;;;;;;;;;;5058242;28;19951;-75
2024/02/17 09:56:55;;;;;;;;;;;;;;;;;;5054420;28;19928;-76
2024/02/17 09:59:22;;;;;;;;;;;;;;;;;;5054300;28;19939;-76
2024/02/17 10:01:50;;;;;;;;;;;;;;;;;;5056448;28;19932;-75
2024/02/17 10:04:17;;;;;;;;;;;;;;;;;;5053136;28;19939;-73
2024/02/17 10:06:45;;;;;;;;;;;;;;;;;;5051426;28;20362;-73
2024/02/17 10:09:12;;;;;;;;;;;;;;;;;;5047533;28;19940;-74
2024/02/17 10:11:39;;;;;;;;;;;;;;;;;;5057602;28;19929;-74
2024/02/17 10:14:06;;;;;;;;;;;;;;;;;;5049059;28;20019;-75
2024/02/17 10:16:33;;;;;;;;;;;;;;;;;;5045959;28;19951;-74
2024/02/17 10:19:02;;;;;;;;;;;;;;;;;;5044832;28;19933;-75
2024/02/17 10:21:29;;;;;;;;;;;;;;;;;;5048694;28;19983;-75
2024/02/17 10:23:56;;;;;;;;;;;;;;;;;;5040706;28;20291;-77
2024/02/17 10:26:23;;;;;;;;;;;;;;;;;;5052484;28;20019;-73
2024/02/17 10:28:50;;;;;;;;;;;;;;;;;;5047941;28;20306;-74
2024/02/17 10:31:17;;;;;;;;;;;;;;;;;;5048385;28;19933;-72
2024/02/17 10:33:44;;;;;;;;;;;;;;;;;;5048854;28;19928;-72
2024/02/17 10:36:12;;;;;;;;;;;;;;;;;;5049075;28;20608;-72
2024/02/17 10:38:40;;;;;;;;;;;;;;;;;;5043924;28;19935;-71
2024/02/17 10:41:07;;;;;;;;;;;;;;;;;;5050668;28;19979;-70
2024/02/17 10:43:36;;;;;;;;;;;;;;;;;;5039391;28;20015;-70
2024/02/17 10:46:03;;;;;;;;;;;;;;;;;;5041700;28;19964;-72
2024/02/17 10:48:30;;;;;;;;;;;;;;;;;;5044095;28;20390;-73
2024/02/17 10:50:57;;;;;;;;;;;;;;;;;;5039640;28;20015;-73
2024/02/17 10:53:24;;;;;;;;;;;;;;;;;;5047521;28;20019;-71
2024/02/17 10:55:51;;;;;;;;;;;;;;;;;;5043203;28;20402;-72
2024/02/17 10:58:18;;;;;;;;;;;;;;;;;;5044355;28;19935;-73
2024/02/17 11:00:45;;;;;;;;;;;;;;;;;;5044446;28;19929;-75
2024/02/17 11:03:12;;;;;;;;;;;;;;;;;;5048433;28;20399;-78
2024/02/17 11:05:39;;;;;;;;;;;;;;;;;;5047070;28;20295;-80
2024/02/17 11:08:06;;;;;;;;;;;;;;;;;;5049882;28;20016;-79
2024/02/17 11:10:33;;;;;;;;;;;;;;;;;;5045174;28;20373;-80
2024/02/17 11:13:01;;;;;;;;;;;;;;;;;;5048761;28;20362;-79
2024/02/17 11:15:28;;;;;;;;;;;;;;;;;;5049324;28;19929;-79
2024/02/17 11:17:55;;;;;;;;;;;;;;;;;;5049465;28;20380;-76
2024/02/17 11:20:22;;;;;;;;;;;;;;;;;;5047900;28;19928;-81
2024/02/17 11:22:49;;;;;;;;;;;;;;;;;;5046919;28;19939;-78
2024/02/17 11:25:16;;;;;;;;;;;;;;;;;;5049337;28;19940;-81
2024/02/17 11:27:43;;;;;;;;;;;;;;;;;;5043853;28;19935;-82
2024/02/17 11:30:10;;;;;;;;;;;;;;;;;;5045972;28;20375;-73
2024/02/17 11:32:37;;;;;;;;;;;;;;;;;;5044020;28;19933;-73
2024/02/17 11:35:05;;;;;;;;;;;;;;;;;;5047663;28;20019;-73
2024/02/17 11:37:32;;;;;;;;;;;;;;;;;;5046819;28;19935;-73
2024/02/17 11:39:59;;;;;;;;;;;;;;;;;;5050376;28;20392;-72
2024/02/17 11:42:26;;;;;;;;;;;;;;;;;;5050146;28;19928;-71
2024/02/17 11:44:53;;;;;;;;;;;;;;;;;;5044492;28;19928;-71
2024/02/17 11:47:20;;;;;;;;;;;;;;;;;;5048966;28;19939;-72
2024/02/17 11:49:48;;;;;;;;;;;;;;;;;;5049586;28;20355;-71
2024/02/17 11:52:15;;;;;;;;;;;;;;;;;;5044498;28;19999;-72
2024/02/17 11:54:42;;;;;;;;;;;;;;;;;;5047451;28;20424;-72
2024/02/17 11:57:11;;;;;;;;;;;;;;;;;;5048292;28;19935;-72
2024/02/17 11:59:38;;;;;;;;;;;;;;;;;;5048355;28;20054;-71
2024/02/17 12:02:10;;;;;;;;;;;;;;;;;;5048656;28;20043;-72
2024/02/17 12:04:37;;;;;;;;;;;;;;;;;;5057844;28;19929;-72
2024/02/17 12:07:04;;;;;;;;;;;;;;;;;;5049578;28;19928;-71
2024/02/17 12:09:31;;;;;;;;;;;;;;;;;;5045971;28;19936;-71
2024/02/17 12:11:58;;;;;;;;;;;;;;;;;;5042806;28;19932;-71
2024/02/17 12:14:25;;;;;;;;;;;;;;;;;;5036412;28;20372;-72
2024/02/17 12:16:52;;;;;;;;;;;;;;;;;;5048274;28;19929;-72
2024/02/17 12:19:19;;;;;;;;;;;;;;;;;;5041449;28;19928;-72
2024/02/17 12:21:46;;;;;;;;;;;;;;;;;;5054304;28;19929;-71
2024/02/17 12:24:13;;;;;;;;;;;;;;;;;;5049184;28;19935;-70
2024/02/17 12:26:41;;;;;;;;;;;;;;;;;;5044813;28;20434;-74
2024/02/17 12:29:08;;;;;;;;;;;;;;;;;;5049185;28;19932;-72
2024/02/17 12:31:35;;;;;;;;;;;;;;;;;;5049487;28;19948;-72
2024/02/17 12:34:02;;;;;;;;;;;;;;;;;;5033296;28;20570;-72
2024/02/17 12:36:29;;;;;;;;;;;;;;;;;;5046659;28;20429;-72
2024/02/17 12:38:56;;;;;;;;;;;;;;;;;;5049557;28;20031;-72
2024/02/17 12:41:23;;;;;;;;;;;;;;;;;;5031662;28;19929;-71
2024/02/17 12:43:51;;;;;;;;;;;;;;;;;;5061437;28;20027;-71
2024/02/17 12:46:18;;;;;;;;;;;;;;;;;;5048583;28;19924;-73
2024/02/17 12:48:45;;;;;;;;;;;;;;;;;;5043439;28;19929;-72
2024/02/17 12:51:12;;;;;;;;;;;;;;;;;;5048183;28;20360;-72
2024/02/17 12:53:39;;;;;;;;;;;;;;;;;;5038519;28;20016;-73
2024/02/17 12:56:06;;;;;;;;;;;;;;;;;;5041891;28;20402;-72
2024/02/17 12:58:33;;;;;;;;;;;;;;;;;;5041321;28;20021;-71
2024/02/17 13:01:00;;;;;;;;;;;;;;;;;;5047799;28;20015;-72
2024/02/17 13:03:27;;;;;;;;;;;;;;;;;;5047073;28;20311;-72
2024/02/17 13:05:54;;;;;;;;;;;;;;;;;;5054185;28;20019;-71
2024/02/17 13:08:22;;;;;;;;;;;;;;;;;;5057387;28;19935;-71
2024/02/17 13:10:49;;;;;;;;;;;;;;;;;;5044663;28;19932;-72
2024/02/17 13:13:17;;;;;;;;;;;;;;;;;;5050052;28;19928;-72
2024/02/17 13:15:44;;;;;;;;;;;;;;;;;;5054283;28;19928;-72
2024/02/17 13:18:11;;;;;;;;;;;;;;;;;;5033747;28;19929;-72
2024/02/17 13:20:39;;;;;;;;;;;;;;;;;;5045955;28;20013;-72
2024/02/17 13:23:06;;;;;;;;;;;;;;;;;;5032239;28;20289;-73
2024/02/17 13:25:33;;;;;;;;;;;;;;;;;;5030299;28;20052;-73
2024/02/17 13:28:00;;;;;;;;;;;;;;;;;;5048166;28;19929;-73
2024/02/17 13:30:28;;;;;;;;;;;;;;;;;;5046923;28;20327;-71
2024/02/17 13:32:55;;;;;;;;;;;;;;;;;;5041447;28;19958;-72
2024/02/17 13:35:22;;;;;;;;;;;;;;;;;;5030053;28;19936;-72
2024/02/17 13:37:49;;;;;;;;;;;;;;;;;;5042315;28;20035;-71
2024/02/17 13:40:17;;;;;;;;;;;;;;;;;;5048612;28;19929;-72
2024/02/17 13:42:45;;;;;;;;;;;;;;;;;;5048846;28;19964;-72
2024/02/17 13:45:12;;;;;;;;;;;;;;;;;;5044487;28;20429;-72
2024/02/17 13:47:39;;;;;;;;;;;;;;;;;;5048488;28;19975;-72
2024/02/17 13:50:07;;;;;;;;;;;;;;;;;;5047702;28;20031;-71
2024/02/17 13:52:34;;;;;;;;;;;;;;;;;;5048327;28;20411;-72
2024/02/17 13:55:01;;;;;;;;;;;;;;;;;;5045386;28;19933;-72
2024/02/17 13:57:28;;;;;;;;;;;;;;;;;;5036966;28;20306;-72
2024/02/17 13:59:55;;;;;;;;;;;;;;;;;;5045071;28;19929;-72
2024/02/17 14:02:22;;;;;;;;;;;;;;;;;;5044227;28;19958;-73
2024/02/17 14:04:49;;;;;;;;;;;;;;;;;;5047009;28;20112;-73
2024/02/17 14:07:16;;;;;;;;;;;;;;;;;;5047844;28;20403;-72
2024/02/17 14:09:43;;;;;;;;;;;;;;;;;;5046893;28;19987;-71
2024/02/17 14:12:11;;;;;;;;;;;;;;;;;;5047037;28;20026;-72
2024/02/17 14:14:38;;;;;;;;;;;;;;;;;;5046752;28;20006;-73
2024/02/17 14:17:05;;;;;;;;;;;;;;;;;;5048376;28;19968;-73
2024/02/17 14:19:37;;;;;;;;;;;;;;;;;;5045828;28;20284;-73
2024/02/17 14:22:04;;;;;;;;;;;;;;;;;;5044318;28;19929;-74
2024/02/17 14:24:32;;;;;;;;;;;;;;;;;;5050843;28;20459;-73
2024/02/17 14:26:59;;;;;;;;;;;;;;;;;;5040823;28;19933;-73
2024/02/17 14:29:26;;;;;;;;;;;;;;;;;;5051303;28;19935;-73
2024/02/17 14:31:53;;;;;;;;;;;;;;;;;;5050261;28;19971;-73
2024/02/17 14:34:20;;;;;;;;;;;;;;;;;;5051249;28;19928;-73
2024/02/17 14:36:47;;;;;;;;;;;;;;;;;;5041968;28;20301;-73
2024/02/17 14:39:14;;;;;;;;;;;;;;;;;;5049368;28;20023;-73
2024/02/17 14:41:42;;;;;;;;;;;;;;;;;;5050515;28;20253;-73
2024/02/17 14:44:09;;;;;;;;;;;;;;;;;;5051348;28;19951;-73
2024/02/17 14:46:36;;;;;;;;;;;;;;;;;;5046488;28;20023;-79
2024/02/17 14:49:03;;;;;;;;;;;;;;;;;;5049974;28;20039;-73
2024/02/17 14:51:30;;;;;;;;;;;;;;;;;;5050828;28;19933;-73
2024/02/17 14:53:57;;;;;;;;;;;;;;;;;;5050928;28;19929;-72
2024/02/17 14:56:24;;;;;;;;;;;;;;;;;;5050940;28;19929;-73
2024/02/17 14:58:51;;;;;;;;;;;;;;;;;;5051111;28;19968;-73
2024/02/17 15:01:18;;;;;;;;;;;;;;;;;;5051660;28;20035;-73
2024/02/17 15:03:45;;;;;;;;;;;;;;;;;;5049623;28;20024;-73
2024/02/17 15:06:12;;;;;;;;;;;;;;;;;;5050845;28;20391;-73
2024/02/17 15:08:39;;;;;;;;;;;;;;;;;;5051169;28;19933;-73
2024/02/17 15:11:07;;;;;;;;;;;;;;;;;;5050402;28;20457;-71
2024/02/17 15:13:34;;;;;;;;;;;;;;;;;;5046936;28;19928;-72
2024/02/17 15:16:01;;;;;;;;;;;;;;;;;;5045299;28;20020;-74
2024/02/17 15:18:28;;;;;;;;;;;;;;;;;;5049614;28;20007;-70
2024/02/17 15:20:55;;;;;;;;;;;;;;;;;;5042745;28;20023;-71
2024/02/17 15:23:22;;;;;;;;;;;;;;;;;;5049028;28;19967;-71
2024/02/17 15:25:49;;;;;;;;;;;;;;;;;;5047180;28;19929;-71
2024/02/17 15:28:17;;;;;;;;;;;;;;;;;;5053349;28;20011;-72
2024/02/17 15:30:44;;;;;;;;;;;;;;;;;;5128592;22;19928;-72
2024/02/17 15:33:11;;;;;;;;;;;;;;;;;;5052723;28;20392;-72
2024/02/17 15:35:39;;;;;;;;;;;;;;;;;;5046801;28;20039;-71
2024/02/17 15:38:06;;;;;;;;;;;;;;;;;;5044250;28;19939;-72
2024/02/17 15:40:34;;;;;;;;;;;;;;;;;;5049631;28;19929;-74
2024/02/17 15:43:01;;;;;;;;;;;;;;;;;;5043497;28;19932;-72
2024/02/17 15:45:28;;;;;;;;;;;;;;;;;;5049312;28;20019;-71
2024/02/17 15:47:56;;;;;;;;;;;;;;;;;;5048395;28;19955;-72
2024/02/17 15:50:23;;;;;;;;;;;;;;;;;;5041253;28;19929;-72
2024/02/17 15:52:50;;;;;;;;;;;;;;;;;;5037363;28;20471;-72
2024/02/17 15:55:17;;;;;;;;;;;;;;;;;;5043338;28;20016;-72
2024/02/17 15:57:44;;;;;;;;;;;;;;;;;;5046276;28;20024;-71
2024/02/17 16:00:11;;;;;;;;;;;;;;;;;;5034168;28;19928;-71
2024/02/17 16:02:38;;;;;;;;;;;;;;;;;;5040336;28;19929;-72
2024/02/17 16:05:05;;;;;;;;;;;;;;;;;;5044697;28;20674;-72
2024/02/17 16:07:32;;;;;;;;;;;;;;;;;;5041898;28;19937;-72
2024/02/17 16:09:59;;;;;;;;;;;;;;;;;;5044196;28;20015;-72
2024/02/17 16:12:26;;;;;;;;;;;;;;;;;;5035713;28;19933;-72
2024/02/17 16:14:53;;;;;;;;;;;;;;;;;;5039654;28;19929;-71
2024/02/17 16:17:21;;;;;;;;;;;;;;;;;;5042633;28;20314;-72
2024/02/17 16:19:48;;;;;;;;;;;;;;;;;;5030833;28;19928;-72
2024/02/17 16:22:15;;;;;;;;;;;;;;;;;;5040101;28;19932;-71
2024/02/17 16:24:43;;;;;;;;;;;;;;;;;;5036487;28;20012;-72
2024/02/17 16:27:10;;;;;;;;;;;;;;;;;;5038716;28;19928;-72
2024/02/17 16:29:37;;;;;;;;;;;;;;;;;;5045729;28;19936;-72
2024/02/17 16:32:04;;;;;;;;;;;;;;;;;;5046181;28;20004;-72
2024/02/17 16:34:31;;;;;;;;;;;;;;;;;;5042394;28;19935;-72
2024/02/17 16:36:58;;;;;;;;;;;;;;;;;;5033585;28;21907;-72
2024/02/17 16:39:25;;;;;;;;;;;;;;;;;;5049026;28;20023;-72
2024/02/17 16:41:52;;;;;;;;;;;;;;;;;;5045980;28;20019;-72
2024/02/17 16:44:19;;;;;;;;;;;;;;;;;;5044149;28;19928;-72
2024/02/17 16:46:48;;;;;;;;;;;;;;;;;;5042168;28;19929;-72